Terminal Aerodrome Forecast
Issued by NWS

Home | Current Version | Previous Version | Text Only | Print | Product List | Glossary Off
Versions: 1 2 3 4 5 6 7 8 9 10 11 12 13 14

442
FTUS43 KFGF 201726
TAFBJI
TAF
KBJI 201726Z 2018/2118 36009KT P6SM -RA OVC010
     FM202000 01008KT P6SM BKN035
     FM210100 VRB03KT P6SM BKN080
     FM210400 00000KT P6SM SCT130=

USA.gov is the U.S. government's official web portal to all federal, state and local government web resources and services.